Time;durP1;ratioP1;P1;durP2;ratioP2;P2;SDS_P1;SDS_P2;PMS_P1;PMS_P2;Temp;Humidity;BMP_temperature;BMP_pressure;BME280_temperature;BME280_humidity;BME280_pressure;Samples;Min_cycle;Max_cycle;Signal;HPM_P1;HPM_P2
2023/12/02 00:01:24;;;;;;;0.50;0.50;;;;;;;8.18;49.96;101169.59;5059950;28;20033;-61
2023/12/02 00:03:50;;;;;;;0.40;0.40;;;;;;;8.24;50.14;101165.28;5048908;28;20163;-61
2023/12/02 00:06:16;;;;;;;0.40;0.40;;;;;;;8.08;50.45;101165.69;5054305;28;20048;-61
2023/12/02 00:08:41;;;;;;;0.50;0.50;;;;;;;8.15;50.38;101166.50;5049425;28;20029;-60
2023/12/02 00:11:07;;;;;;;0.40;0.40;;;;;;;7.92;51.39;101170.34;5048663;28;20037;-60
2023/12/02 00:13:32;;;;;;;0.40;0.40;;;;;;;8.14;50.70;101162.19;5048974;28;20131;-62
2023/12/02 00:15:58;;;;;;;0.40;0.40;;;;;;;8.16;50.56;101160.13;5051764;28;20081;-61
2023/12/02 00:18:23;;;;;;;0.40;0.40;;;;;;;8.17;50.17;101164.47;5068441;28;20235;-61
2023/12/02 00:20:49;;;;;;;0.45;0.45;;;;;;;8.16;50.46;101173.50;5069227;28;20033;-60
2023/12/02 00:23:15;;;;;;;0.38;0.38;;;;;;;8.05;50.29;101160.72;5068647;28;20032;-59
2023/12/02 00:25:40;;;;;;;0.40;0.40;;;;;;;7.87;50.67;101172.78;5068503;28;20048;-61
2023/12/02 00:28:05;;;;;;;0.43;0.43;;;;;;;8.12;50.23;101159.69;5068699;28;20036;-62
2023/12/02 00:30:31;;;;;;;0.50;0.50;;;;;;;8.30;49.69;101167.19;5068616;28;20121;-61
2023/12/02 00:32:56;;;;;;;0.50;0.50;;;;;;;8.17;51.03;101156.44;5069036;28;20504;-61
2023/12/02 00:35:22;;;;;;;0.47;0.47;;;;;;;8.06;51.21;101152.47;5069493;28;20036;-61
2023/12/02 00:37:47;;;;;;;0.40;0.40;;;;;;;8.18;50.24;101156.22;5072009;28;20492;-61
2023/12/02 00:40:12;;;;;;;0.40;0.40;;;;;;;8.18;50.29;101150.03;5072111;28;20123;-61
2023/12/02 00:42:38;;;;;;;0.32;0.32;;;;;;;8.22;50.23;101144.09;5072206;28;20041;-62
2023/12/02 00:45:03;;;;;;;0.30;0.30;;;;;;;8.25;50.64;101146.41;5072128;28;20059;-62
2023/12/02 00:47:29;;;;;;;0.55;0.55;;;;;;;8.31;50.49;101142.09;5073212;28;20025;-61
2023/12/02 00:49:54;;;;;;;0.40;0.40;;;;;;;8.11;50.94;101149.19;5072386;28;20586;-62
2023/12/02 00:52:19;;;;;;;0.30;0.30;;;;;;;8.19;50.44;101149.84;5072193;28;20032;-60
2023/12/02 00:54:45;;;;;;;0.40;0.40;;;;;;;8.00;50.56;101138.06;5072171;28;20032;-62
2023/12/02 00:57:10;;;;;;;0.45;0.45;;;;;;;8.24;51.30;101149.22;5071805;28;20036;-61
2023/12/02 00:59:35;;;;;;;0.40;0.40;;;;;;;8.24;51.04;101149.22;5072699;28;20033;-61
2023/12/02 01:02:01;;;;;;;0.40;0.40;;;;;;;8.35;50.08;101146.84;5071322;28;20561;-61
2023/12/02 01:04:26;;;;;;;0.30;0.30;;;;;;;7.96;51.43;101150.19;5071842;28;20439;-61
2023/12/02 01:06:51;;;;;;;0.50;0.50;;;;;;;8.25;50.53;101149.06;5072112;28;20120;-61
2023/12/02 01:09:17;;;;;;;0.50;0.50;;;;;;;8.35;51.13;101157.56;5071623;28;20029;-60
2023/12/02 01:11:42;;;;;;;0.50;0.50;;;;;;;8.25;50.50;101162.47;5072003;28;20111;-60
2023/12/02 01:14:07;;;;;;;0.30;0.30;;;;;;;8.28;50.57;101156.69;5071765;28;20321;-60
2023/12/02 01:16:33;;;;;;;0.40;0.40;;;;;;;7.99;50.87;101160.50;5071820;28;20155;-60
2023/12/02 01:18:58;;;;;;;0.50;0.50;;;;;;;8.08;51.19;101160.31;5071673;28;20119;-61
2023/12/02 01:21:23;;;;;;;0.40;0.40;;;;;;;8.03;51.66;101171.63;5072051;28;20127;-62
2023/12/02 01:23:49;;;;;;;0.40;0.40;;;;;;;8.18;50.97;101166.91;5072033;28;20067;-61
2023/12/02 01:26:14;;;;;;;0.40;0.40;;;;;;;8.25;51.18;101170.50;5071391;28;20036;-61
2023/12/02 01:28:39;;;;;;;0.40;0.40;;;;;;;8.22;50.26;101170.00;5071612;28;20404;-60
2023/12/02 01:31:06;;;;;;;0.47;0.47;;;;;;;8.19;50.66;101171.28;5071644;28;20115;-60
2023/12/02 01:33:31;;;;;;;0.47;0.47;;;;;;;8.30;50.56;101161.84;5071482;28;20036;-60
2023/12/02 01:35:56;;;;;;;0.40;0.40;;;;;;;8.00;50.99;101156.78;5064948;28;20059;-61
2023/12/02 01:38:22;;;;;;;0.40;0.40;;;;;;;8.38;50.44;101162.47;5051345;28;20041;-60
2023/12/02 01:40:47;;;;;;;0.40;0.40;;;;;;;8.30;50.46;101164.50;5051234;28;20040;-61
2023/12/02 01:43:24;;;;;;;0.40;0.40;;;;;;;8.52;50.29;101164.16;5065634;28;20559;-60
2023/12/02 01:45:49;;;;;;;0.40;0.40;;;;;;;8.20;50.43;101167.53;5070790;28;20036;-61
2023/12/02 01:48:15;;;;;;;0.40;0.40;;;;;;;8.35;51.01;101167.44;5071487;28;20487;-61
2023/12/02 01:50:40;;;;;;;0.40;0.40;;;;;;;8.32;51.05;101165.97;5071578;28;20024;-61
2023/12/02 01:53:06;;;;;;;0.40;0.40;;;;;;;8.29;50.67;101162.88;5071128;28;20051;-61
2023/12/02 01:55:31;;;;;;;0.50;0.50;;;;;;;8.39;50.50;101164.13;5071050;28;20040;-60
2023/12/02 01:57:57;;;;;;;0.40;0.40;;;;;;;8.35;50.83;101170.09;5068021;28;20227;-61
2023/12/02 02:00:23;;;;;;;0.50;0.50;;;;;;;8.42;50.45;101166.41;5051269;28;20037;-61
2023/12/02 02:02:48;;;;;;;0.50;0.50;;;;;;;8.36;50.29;101169.06;5051245;28;20567;-60
2023/12/02 02:05:14;;;;;;;0.40;0.40;;;;;;;8.61;50.19;101151.38;5050561;28;20131;-60
2023/12/02 02:07:39;;;;;;;0.38;0.38;;;;;;;8.42;49.95;101154.88;5050808;28;20051;-61
2023/12/02 02:10:05;;;;;;;0.50;0.50;;;;;;;8.38;50.28;101151.78;5050908;28;20036;-61
2023/12/02 02:12:31;;;;;;;0.40;0.40;;;;;;;8.54;50.13;101150.56;5050745;28;20067;-60
2023/12/02 02:14:56;;;;;;;0.60;0.60;;;;;;;8.60;50.21;101155.09;5051259;28;20107;-60
2023/12/02 02:17:22;;;;;;;0.40;0.40;;;;;;;8.04;50.75;101151.84;5065127;28;20043;-61
2023/12/02 02:19:47;;;;;;;0.32;0.32;;;;;;;7.82;51.61;101148.47;5070615;28;20089;-59
2023/12/02 02:22:12;;;;;;;0.50;0.50;;;;;;;8.44;50.34;101158.16;5070585;28;20032;-62
2023/12/02 02:24:38;;;;;;;0.50;0.50;;;;;;;8.42;50.71;101165.56;5070538;28;20502;-60
2023/12/02 02:27:04;;;;;;;0.43;0.43;;;;;;;8.42;50.40;101181.63;5068979;28;20110;-60
2023/12/02 02:29:29;;;;;;;0.50;0.50;;;;;;;8.40;50.50;101172.97;5070765;28;20036;-59
2023/12/02 02:31:55;;;;;;;0.40;0.40;;;;;;;8.35;51.11;101173.63;5070318;28;20036;-61
2023/12/02 02:34:20;;;;;;;0.40;0.40;;;;;;;8.52;50.19;101177.56;5070088;28;20060;-60
2023/12/02 02:36:45;;;;;;;0.47;0.47;;;;;;;8.53;50.60;101183.75;5070125;28;20540;-60
2023/12/02 02:39:11;;;;;;;0.40;0.40;;;;;;;8.53;50.42;101181.06;5069549;28;20048;-61
2023/12/02 02:41:36;;;;;;;0.40;0.40;;;;;;;8.42;50.31;101174.44;5070311;28;20085;-61
2023/12/02 02:44:02;;;;;;;0.40;0.40;;;;;;;8.49;50.37;101172.59;5069844;28;20042;-61
2023/12/02 02:46:27;;;;;;;0.50;0.50;;;;;;;8.27;50.93;101173.78;5068415;28;20044;-59
2023/12/02 02:48:52;;;;;;;0.60;0.60;;;;;;;8.30;50.58;101170.69;5070020;28;20511;-61
2023/12/02 02:51:18;;;;;;;0.40;0.40;;;;;;;8.20;50.10;101162.19;5070154;28;20086;-62
2023/12/02 02:53:43;;;;;;;0.50;0.50;;;;;;;8.44;50.00;101164.34;5070054;28;20048;-61
2023/12/02 02:56:09;;;;;;;0.40;0.40;;;;;;;8.00;50.98;101163.97;5069600;28;20078;-61
2023/12/02 02:58:36;;;;;;;0.50;0.50;;;;;;;7.92;51.32;101161.50;5069011;28;20526;-60
2023/12/02 03:01:02;;;;;;;0.35;0.35;;;;;;;8.23;51.03;101169.00;5065374;28;20393;-60
2023/12/02 03:03:28;;;;;;;0.40;0.40;;;;;;;8.55;49.24;101168.28;5049541;28;20045;-60
2023/12/02 03:05:55;;;;;;;0.47;0.47;;;;;;;8.49;49.77;101169.09;5050563;28;20035;-61
2023/12/02 03:08:20;;;;;;;0.40;0.40;;;;;;;8.48;50.59;101162.91;5049787;28;20041;-61
2023/12/02 03:10:49;;;;;;;0.40;0.40;;;;;;;8.56;50.30;101170.75;5048471;28;20041;-59
2023/12/02 03:13:14;;;;;;;0.40;0.40;;;;;;;8.26;51.39;101173.97;5062298;28;20119;-61
2023/12/02 03:15:40;;;;;;;0.40;0.40;;;;;;;8.40;50.30;101176.50;5069148;28;20059;-60
2023/12/02 03:18:05;;;;;;;0.30;0.30;;;;;;;8.42;50.28;101176.28;5069352;28;20064;-61
2023/12/02 03:20:30;;;;;;;0.40;0.40;;;;;;;8.49;50.03;101174.47;5070089;28;20020;-60
2023/12/02 03:22:56;;;;;;;0.50;0.50;;;;;;;7.91;51.13;101179.41;5067991;28;20579;-60
2023/12/02 03:25:21;;;;;;;0.50;0.50;;;;;;;8.15;50.40;101180.72;5069344;28;20037;-59
2023/12/02 03:27:46;;;;;;;0.52;0.52;;;;;;;8.00;50.23;101177.34;5069325;28;20115;-60
2023/12/02 03:30:12;;;;;;;0.55;0.55;;;;;;;7.57;51.31;101183.94;5069408;28;20055;-61
2023/12/02 03:32:38;;;;;;;0.68;0.68;;;;;;;7.68;51.84;101178.06;5059399;28;20048;-60
2023/12/02 03:35:06;;;;;;;0.50;0.50;;;;;;;7.76;51.34;101176.03;5049415;28;20194;-60
2023/12/02 03:37:31;;;;;;;0.50;0.50;;;;;;;7.26;52.25;101167.50;5049016;28;20064;-61
2023/12/02 03:39:57;;;;;;;0.40;0.40;;;;;;;7.16;53.62;101161.66;5049115;28;20120;-61
2023/12/02 03:42:22;;;;;;;0.52;0.52;;;;;;;7.50;52.53;101159.03;5056596;28;20132;-61
2023/12/02 03:44:47;;;;;;;0.63;0.63;;;;;;;7.88;50.90;101158.38;5068387;28;20027;-61
2023/12/02 03:47:13;;;;;;;0.50;0.50;;;;;;;7.96;50.38;101158.22;5068972;28;20123;-61
2023/12/02 03:49:38;;;;;;;0.38;0.38;;;;;;;8.05;50.73;101163.38;5068983;28;20123;-61
2023/12/02 03:52:04;;;;;;;0.40;0.40;;;;;;;8.33;49.83;101167.63;5053440;28;20083;-61
2023/12/02 03:54:29;;;;;;;0.40;0.40;;;;;;;8.04;50.35;101167.91;5049148;28;20120;-61
2023/12/02 03:56:54;;;;;;;0.40;0.40;;;;;;;8.10;50.56;101182.34;5049292;28;20036;-60
2023/12/02 03:59:20;;;;;;;0.50;0.50;;;;;;;8.40;49.67;101168.47;5048903;28;20174;-60
2023/12/02 04:01:45;;;;;;;0.50;0.50;;;;;;;8.29;49.60;101169.06;5048632;28;20124;-60
2023/12/02 04:04:10;;;;;;;0.50;0.50;;;;;;;8.24;50.09;101159.94;5048747;28;20482;-61
2023/12/02 04:06:36;;;;;;;0.45;0.45;;;;;;;7.88;50.78;101157.56;5049058;28;20036;-61
2023/12/02 04:09:01;;;;;;;0.30;0.30;;;;;;;7.99;50.79;101165.84;5049581;28;20492;-60
2023/12/02 04:11:27;;;;;;;0.40;0.40;;;;;;;8.46;49.78;101161.47;5052989;28;20040;-60
2023/12/02 04:13:52;;;;;;;0.50;0.50;;;;;;;8.51;49.25;101161.69;5052578;28;20044;-61
2023/12/02 04:16:17;;;;;;;0.55;0.55;;;;;;;8.09;49.76;101165.47;5053073;28;20408;-61
2023/12/02 04:18:43;;;;;;;0.50;0.50;;;;;;;8.25;49.69;101167.81;5052438;28;20103;-60
2023/12/02 04:21:09;;;;;;;0.47;0.47;;;;;;;8.19;49.73;101165.91;5052599;28;20147;-60
2023/12/02 04:23:36;;;;;;;0.40;0.40;;;;;;;8.18;49.96;101168.78;5053309;28;20017;-59
2023/12/02 04:26:01;;;;;;;0.43;0.43;;;;;;;7.88;51.22;101182.47;5053077;28;20060;-60
2023/12/02 04:28:26;;;;;;;0.40;0.40;;;;;;;8.19;49.92;101179.31;5052375;28;20028;-60
2023/12/02 04:30:52;;;;;;;0.40;0.40;;;;;;;8.13;50.07;101188.13;5052469;28;20031;-60
2023/12/02 04:33:17;;;;;;;0.30;0.30;;;;;;;6.98;53.27;101183.53;5068401;28;20336;-60
2023/12/02 04:35:43;;;;;;;0.40;0.40;;;;;;;6.66;54.94;101197.44;5073036;28;20089;-61
2023/12/02 04:38:08;;;;;;;0.40;0.40;;;;;;;7.19;53.53;101204.06;5071920;28;20049;-61
2023/12/02 04:40:33;;;;;;;0.50;0.50;;;;;;;7.34;53.22;101202.94;5072447;28;20177;-61
2023/12/02 04:42:59;;;;;;;0.50;0.50;;;;;;;7.02;54.33;101207.00;5072296;28;20033;-60
2023/12/02 04:45:25;;;;;;;0.63;0.63;;;;;;;7.14;53.44;101204.63;5072183;28;20112;-60
2023/12/02 04:47:50;;;;;;;0.40;0.40;;;;;;;7.20;53.77;101211.03;5060766;28;20131;-60
2023/12/02 04:50:16;;;;;;;0.50;0.50;;;;;;;7.23;53.62;101211.50;5052250;28;20033;-61
2023/12/02 04:52:41;;;;;;;0.60;0.60;;;;;;;7.31;52.81;101211.31;5052193;28;20044;-61
2023/12/02 04:55:07;;;;;;;0.50;0.50;;;;;;;6.63;53.49;101212.00;5052163;28;20031;-59
2023/12/02 04:57:33;;;;;;;0.50;0.50;;;;;;;6.99;53.60;101214.59;5051916;28;20037;-60
2023/12/02 04:59:58;;;;;;;0.47;0.47;;;;;;;7.42;52.29;101209.97;5052165;28;20040;-60
2023/12/02 05:02:24;;;;;;;0.53;0.53;;;;;;;7.05;53.55;101219.16;5064732;28;20082;-60
2023/12/02 05:04:49;;;;;;;0.52;0.52;;;;;;;7.04;53.82;101217.50;5071280;28;20229;-61
2023/12/02 05:07:15;;;;;;;0.53;0.53;;;;;;;7.08;53.50;101218.75;5071640;28;20052;-60
2023/12/02 05:09:40;;;;;;;0.60;0.60;;;;;;;7.03;53.49;101214.03;5071205;28;20036;-60
2023/12/02 05:12:07;;;;;;;0.43;0.43;;;;;;;7.08;53.83;101218.75;5071395;28;20036;-61
2023/12/02 05:14:32;;;;;;;0.40;0.40;;;;;;;7.27;52.88;101214.59;5071260;28;20029;-60
2023/12/02 05:16:58;;;;;;;0.60;0.60;;;;;;;7.62;52.22;101224.31;5070608;28;20040;-61
2023/12/02 05:19:23;;;;;;;0.50;0.50;;;;;;;7.62;51.86;101227.81;5071595;28;20033;-60
2023/12/02 05:21:48;;;;;;;0.40;0.40;;;;;;;7.62;52.07;101225.13;5070598;28;20119;-60
2023/12/02 05:24:14;;;;;;;0.43;0.43;;;;;;;7.82;51.47;101220.69;5071463;28;20106;-59
2023/12/02 05:26:39;;;;;;;0.50;0.50;;;;;;;7.72;51.30;101239.00;5071976;28;20028;-60
2023/12/02 05:29:07;;;;;;;0.40;0.40;;;;;;;7.74;51.57;101238.78;5071108;28;20040;-61
2023/12/02 05:31:33;;;;;;;0.45;0.45;;;;;;;7.55;52.15;101237.63;5071317;28;20294;-60
2023/12/02 05:33:58;;;;;;;0.33;0.33;;;;;;;7.11;53.38;101245.13;5071356;28;20047;-61
2023/12/02 05:36:24;;;;;;;0.50;0.50;;;;;;;6.82;54.13;101250.59;5071430;28;20040;-61
2023/12/02 05:38:49;;;;;;;0.50;0.50;;;;;;;6.79;54.18;101246.47;5071319;28;20098;-60
2023/12/02 05:41:14;;;;;;;0.47;0.47;;;;;;;7.17;53.46;101254.19;5071258;28;20040;-60
2023/12/02 05:43:40;;;;;;;0.40;0.40;;;;;;;7.31;52.60;101247.94;5070680;28;20040;-59
2023/12/02 05:46:06;;;;;;;0.50;0.50;;;;;;;6.98;53.97;101243.16;5071259;28;20041;-61
2023/12/02 05:48:31;;;;;;;0.47;0.47;;;;;;;6.67;54.75;101242.63;5071065;28;20400;-61
2023/12/02 05:50:56;;;;;;;0.50;0.50;;;;;;;6.75;55.16;101244.34;5071908;28;20029;-60
2023/12/02 05:53:23;;;;;;;0.40;0.40;;;;;;;6.80;55.64;101245.44;5070940;28;20461;-60
2023/12/02 05:55:48;;;;;;;0.80;0.80;;;;;;;6.78;55.31;101246.66;5070957;28;20512;-61
2023/12/02 05:58:13;;;;;;;0.40;0.40;;;;;;;6.83;54.65;101252.25;5070639;28;20089;-60
2023/12/02 06:00:39;;;;;;;0.50;0.50;;;;;;;7.18;53.17;101253.16;5070759;28;20573;-60
2023/12/02 06:03:04;;;;;;;0.40;0.40;;;;;;;6.97;54.68;101259.38;5070679;28;20520;-61
2023/12/02 06:05:29;;;;;;;0.60;0.60;;;;;;;6.62;55.59;101255.75;5071324;28;20480;-61
2023/12/02 06:07:55;;;;;;;0.60;0.60;;;;;;;7.25;53.86;101260.25;5070645;28;20039;-59
2023/12/02 06:10:20;;;;;;;0.50;0.50;;;;;;;7.49;52.77;101259.78;5052150;28;20059;-61
2023/12/02 06:12:45;;;;;;;0.50;0.50;;;;;;;7.25;53.34;101262.91;5048917;28;20479;-60
2023/12/02 06:15:11;;;;;;;0.40;0.40;;;;;;;7.33;53.57;101260.06;5052702;28;20146;-60
2023/12/02 06:17:37;;;;;;;0.40;0.40;;;;;;;7.19;53.63;101261.00;5069145;28;20097;-59
2023/12/02 06:20:03;;;;;;;0.40;0.40;;;;;;;7.03;54.10;101266.63;5070272;28;20416;-60
2023/12/02 06:22:28;;;;;;;0.50;0.50;;;;;;;6.91;54.33;101266.31;5070324;28;20043;-61
2023/12/02 06:24:54;;;;;;;0.50;0.50;;;;;;;6.41;56.05;101270.91;5070459;28;20064;-61
2023/12/02 06:27:19;;;;;;;0.50;0.50;;;;;;;6.73;54.26;101267.75;5068249;28;20051;-60
2023/12/02 06:29:44;;;;;;;0.50;0.50;;;;;;;6.12;56.74;101275.25;5070620;28;20054;-60
2023/12/02 06:32:10;;;;;;;0.50;0.50;;;;;;;6.61;55.74;101274.59;5070011;28;20052;-60
2023/12/02 06:34:35;;;;;;;0.50;0.50;;;;;;;6.57;56.64;101276.81;5070316;28;20511;-60
2023/12/02 06:37:00;;;;;;;0.50;0.50;;;;;;;6.60;55.88;101275.63;5070184;28;20135;-59
2023/12/02 06:39:26;;;;;;;0.40;0.40;;;;;;;6.71;54.82;101270.63;5065720;28;20052;-60
2023/12/02 06:41:51;;;;;;;0.40;0.40;;;;;;;7.01;54.76;101279.34;5050717;28;20037;-60
2023/12/02 06:44:17;;;;;;;0.40;0.40;;;;;;;6.74;55.12;101277.44;5052491;28;20572;-60
2023/12/02 06:46:43;;;;;;;0.40;0.40;;;;;;;6.44;55.52;101292.69;5070163;28;20053;-61
2023/12/02 06:49:08;;;;;;;0.50;0.50;;;;;;;6.97;54.21;101281.56;5069852;28;20090;-60
2023/12/02 06:51:34;;;;;;;0.50;0.50;;;;;;;6.62;55.26;101287.78;5069814;28;20450;-60
2023/12/02 06:53:59;;;;;;;0.52;0.52;;;;;;;6.88;54.32;101298.72;5070487;28;20070;-60
2023/12/02 06:56:26;;;;;;;0.30;0.30;;;;;;;6.71;55.24;101297.31;5070193;28;20050;-60
2023/12/02 06:58:52;;;;;;;0.50;0.50;;;;;;;6.12;57.85;101309.09;5070044;28;20033;-61
2023/12/02 07:01:28;;;;;;;0.40;0.40;;;;;;;6.23;57.42;101309.47;5069752;28;20399;-60
2023/12/02 07:03:54;;;;;;;0.70;0.70;;;;;;;6.28;56.77;101314.25;5069900;28;20043;-60
2023/12/02 07:06:20;;;;;;;0.40;0.40;;;;;;;6.67;55.75;101317.41;5053629;28;20032;-62
2023/12/02 07:08:49;;;;;;;0.40;0.40;;;;;;;6.69;55.78;101320.72;5050571;28;20021;-61
2023/12/02 07:11:14;;;;;;;0.50;0.50;;;;;;;6.26;56.89;101326.13;5049443;28;20029;-61
2023/12/02 07:13:40;;;;;;;0.60;0.60;;;;;;;6.30;56.71;101324.75;5049383;28;20078;-60
2023/12/02 07:16:06;;;;;;;0.60;0.60;;;;;;;6.97;55.07;101327.00;5059091;28;20044;-60
2023/12/02 07:18:32;;;;;;;0.30;0.30;;;;;;;6.20;56.92;101330.38;5068964;28;20483;-60
2023/12/02 07:20:57;;;;;;;0.50;0.50;;;;;;;6.40;56.08;101325.28;5070078;28;20032;-60
2023/12/02 07:23:25;;;;;;;0.40;0.40;;;;;;;6.21;57.20;101334.69;5069611;28;20477;-61
2023/12/02 07:25:51;;;;;;;0.53;0.53;;;;;;;6.33;56.81;101338.53;5069503;28;20115;-60
2023/12/02 07:28:16;;;;;;;0.40;0.40;;;;;;;6.09;56.61;101347.66;5069212;28;20155;-60
2023/12/02 07:30:42;;;;;;;0.40;0.40;;;;;;;6.25;57.25;101338.63;5069044;28;20111;-60
2023/12/02 07:33:07;;;;;;;0.50;0.50;;;;;;;6.05;57.68;101345.56;5067682;28;20073;-61
2023/12/02 07:35:32;;;;;;;0.50;0.50;;;;;;;6.54;55.76;101343.13;5068126;28;20048;-60
2023/12/02 07:37:58;;;;;;;0.40;0.40;;;;;;;6.26;56.42;101337.63;5068058;28;20480;-60
2023/12/02 07:40:23;;;;;;;0.40;0.40;;;;;;;5.70;59.36;101339.03;5068751;28;20063;-61
2023/12/02 07:42:48;;;;;;;0.57;0.57;;;;;;;6.29;56.58;101339.91;5068944;28;20115;-60
2023/12/02 07:45:14;;;;;;;0.40;0.40;;;;;;;5.43;60.14;101344.94;5068136;28;20051;-60
2023/12/02 07:47:39;;;;;;;0.50;0.50;;;;;;;5.41;60.41;101346.94;5069222;28;20025;-61
2023/12/02 07:50:07;;;;;;;0.50;0.50;;;;;;;6.08;57.91;101347.84;5068794;28;20107;-61
2023/12/02 07:52:32;;;;;;;0.40;0.40;;;;;;;5.55;60.56;101348.00;5066398;28;20032;-62
2023/12/02 07:54:58;;;;;;;0.43;0.43;;;;;;;5.48;59.16;101339.91;5068425;28;20040;-60
2023/12/02 07:57:23;;;;;;;0.50;0.50;;;;;;;5.57;59.81;101346.81;5068701;28;20052;-61
2023/12/02 07:59:49;;;;;;;0.60;0.60;;;;;;;5.73;58.33;101351.16;5068998;28;20031;-61
2023/12/02 08:02:14;;;;;;;0.50;0.50;;;;;;;6.12;57.98;101355.31;5067599;28;20050;-60
2023/12/02 08:04:39;;;;;;;0.50;0.50;;;;;;;6.95;55.34;101355.75;5068603;28;20036;-61
2023/12/02 08:07:05;;;;;;;0.40;0.40;;;;;;;6.42;56.87;101363.28;5068966;28;20044;-60
2023/12/02 08:09:30;;;;;;;0.50;0.50;;;;;;;5.97;58.09;101375.81;5069156;28;20028;-60
2023/12/02 08:11:55;;;;;;;0.57;0.57;;;;;;;6.39;57.19;101379.69;5069490;28;20032;-60
2023/12/02 08:14:21;;;;;;;0.47;0.47;;;;;;;6.84;55.65;101374.91;5069078;28;20056;-63
2023/12/02 08:16:46;;;;;;;0.50;0.50;;;;;;;6.08;57.92;101380.69;5068955;28;20067;-60
2023/12/02 08:19:11;;;;;;;0.30;0.30;;;;;;;6.14;58.02;101381.78;5067523;28;20054;-60
2023/12/02 08:21:37;;;;;;;0.40;0.40;;;;;;;6.42;57.25;101384.66;5069796;28;20042;-60
2023/12/02 08:24:02;;;;;;;0.50;0.50;;;;;;;5.50;59.38;101393.03;5069062;28;20610;-61
2023/12/02 08:26:28;;;;;;;0.40;0.40;;;;;;;6.06;58.30;101401.38;5069082;28;20090;-61
2023/12/02 08:28:53;;;;;;;0.50;0.50;;;;;;;5.90;60.20;101403.38;5068961;28;20435;-62
2023/12/02 08:31:18;;;;;;;0.50;0.50;;;;;;;5.60;59.67;101415.75;5068144;28;20068;-61
2023/12/02 08:33:44;;;;;;;0.40;0.40;;;;;;;5.75;60.51;101413.97;5068247;28;20253;-60
2023/12/02 08:36:10;;;;;;;0.40;0.40;;;;;;;5.32;60.22;101406.66;5068096;28;20125;-60
2023/12/02 08:38:35;;;;;;;0.50;0.50;;;;;;;5.57;60.97;101412.63;5067411;28;20040;-60
2023/12/02 08:41:02;;;;;;;0.50;0.50;;;;;;;5.30;61.75;101409.50;5067021;28;20040;-61
2023/12/02 08:43:27;;;;;;;0.53;0.53;;;;;;;6.06;59.15;101408.56;5067833;28;20037;-61
2023/12/02 08:45:53;;;;;;;0.40;0.40;;;;;;;6.03;59.86;101407.06;5068168;28;20047;-61
2023/12/02 08:48:18;;;;;;;0.50;0.50;;;;;;;5.76;61.42;101404.97;5066855;28;20063;-61
2023/12/02 08:50:43;;;;;;;0.50;0.50;;;;;;;5.06;63.34;101414.97;5068763;28;20028;-60
2023/12/02 08:53:09;;;;;;;0.40;0.40;;;;;;;4.94;62.28;101420.88;5064887;28;20567;-60
2023/12/02 08:55:35;;;;;;;0.40;0.40;;;;;;;5.61;60.35;101416.59;5067274;28;20082;-60
2023/12/02 08:58:01;;;;;;;0.60;0.60;;;;;;;5.42;61.52;101415.25;5071277;28;20443;-61
2023/12/02 09:00:26;;;;;;;0.50;0.50;;;;;;;5.17;62.41;101419.06;5071708;28;20036;-61
2023/12/02 09:02:51;;;;;;;0.50;0.50;;;;;;;5.51;61.00;101422.16;5072094;28;20017;-61
2023/12/02 09:05:17;;;;;;;0.50;0.50;;;;;;;5.91;59.72;101427.22;5071717;28;20036;-61
2023/12/02 09:07:42;;;;;;;0.50;0.50;;;;;;;5.99;60.33;101419.13;5072237;28;20032;-60
2023/12/02 09:10:09;;;;;;;0.60;0.60;;;;;;;5.28;61.44;101426.66;5071884;28;20086;-61
2023/12/02 09:12:34;;;;;;;0.40;0.40;;;;;;;6.15;58.29;101421.63;5071054;28;20115;-62
2023/12/02 09:15:23;;;;;;;0.57;0.57;;;;;;;5.83;60.05;101427.28;5072197;28;20115;-60
2023/12/02 09:18:14;;;;;;;0.40;0.40;;;;;;;6.59;57.22;101423.47;5002601;28;20414;-62
2023/12/02 09:20:45;;;;;;;0.30;0.30;;;;;;;5.94;59.61;101424.16;5004909;28;20493;-61
2023/12/02 09:23:12;;;;;;;0.60;0.60;;;;;;;6.57;57.59;101420.16;5000320;28;20650;-60
2023/12/02 09:25:39;;;;;;;0.60;0.60;;;;;;;6.84;56.20;101411.50;4999078;28;20141;-60
2023/12/02 09:28:05;;;;;;;0.40;0.40;;;;;;;6.53;57.49;101416.22;5001841;28;20064;-61
2023/12/02 09:30:35;;;;;;;0.30;0.30;;;;;;;5.94;59.36;101428.66;4998694;28;20038;-60
2023/12/02 09:33:00;;;;;;;0.33;0.33;;;;;;;6.49;57.18;101428.25;5000561;28;20517;-61
2023/12/02 09:35:26;;;;;;;0.30;0.30;;;;;;;6.84;57.06;101427.53;5001896;28;20054;-60
2023/12/02 09:37:51;;;;;;;0.40;0.40;;;;;;;7.47;54.41;101434.84;5001476;28;20054;-61
2023/12/02 09:40:19;;;;;;;0.40;0.40;;;;;;;7.12;55.05;101431.13;5003366;28;20037;-61
2023/12/02 09:42:53;;;;;;;0.50;0.50;;;;;;;6.53;56.64;101438.41;4999335;28;20046;-62
2023/12/02 09:45:21;;;;;;;0.40;0.40;;;;;;;5.98;58.98;101437.97;5004580;28;20048;-61
2023/12/02 09:48:01;;;;;;;0.50;0.50;;;;;;;6.60;57.72;101447.34;5008625;28;20402;-61
2023/12/02 09:50:40;;;;;;;0.40;0.40;;;;;;;6.83;56.95;101444.56;5000576;28;20042;-60
2023/12/02 09:53:11;;;;;;;0.40;0.40;;;;;;;7.27;54.92;101439.97;4999528;28;20042;-61
2023/12/02 09:55:41;;;;;;;;;;;;;;;7.97;52.55;101440.84;5057426;28;20094;-62
2023/12/02 09:58:12;;;;;;;0.50;0.50;;;;;;;7.70;52.95;101444.31;5069843;28;20268;-61
2023/12/02 10:00:50;;;;;;;;;;;;;;;7.99;53.11;101446.84;5071225;28;20044;-60
2023/12/02 10:03:48;;;;;;;0.40;0.40;;;;;;;7.31;54.80;101438.53;5067113;28;19912;-60
2023/12/02 10:06:45;;;;;;;0.30;0.30;;;;;;;6.75;56.44;101439.31;5068241;28;20035;-60
2023/12/02 10:09:42;;;;;;;0.40;0.40;;;;;;;7.47;55.33;101435.63;5070322;28;20158;-60
2023/12/02 10:12:46;;;;;;;0.40;0.40;;;;;;;6.48;57.55;101438.13;5010981;28;20540;-61
2023/12/02 10:15:12;;;;;;;0.50;0.50;;;;;;;6.23;58.24;101432.22;5007056;28;20034;-61
2023/12/02 10:17:50;;;;;;;0.50;0.50;;;;;;;6.45;58.68;101434.97;5011412;28;20038;-62
2023/12/02 10:20:16;;;;;;;0.40;0.40;;;;;;;7.90;53.64;101434.59;5010240;28;20049;-60
2023/12/02 10:22:47;;;;;;;0.50;0.50;;;;;;;7.11;55.49;101429.50;5010712;28;20413;-61
2023/12/02 10:25:38;;;;;;;0.50;0.50;;;;;;;7.07;56.75;101438.91;5010501;28;20238;-60
2023/12/02 10:28:38;;;;;;;0.43;0.43;;;;;;;7.11;56.82;101432.16;5008659;28;20682;-60
2023/12/02 10:31:05;;;;;;;0.43;0.43;;;;;;;7.03;56.60;101438.47;5011040;28;20525;-62
2023/12/02 10:33:45;;;;;;;0.60;0.60;;;;;;;8.04;54.13;101438.22;5009544;28;20041;-61
2023/12/02 10:36:11;;;;;;;0.40;0.40;;;;;;;6.85;55.73;101442.53;5009686;28;20055;-62
2023/12/02 10:38:45;;;;;;;0.40;0.40;;;;;;;7.60;55.11;101442.97;5008679;28;20045;-61
2023/12/02 10:41:30;;;;;;;0.55;0.55;;;;;;;7.25;55.79;101436.66;5007858;28;20813;-60
2023/12/02 10:43:57;;;;;;;0.50;0.50;;;;;;;7.86;53.94;101430.66;5007437;28;20180;-62
2023/12/02 10:46:23;;;;;;;0.47;0.47;;;;;;;7.95;53.26;101431.34;5008283;28;20034;-61
2023/12/02 10:48:49;;;;;;;0.40;0.40;;;;;;;8.73;51.16;101434.56;5023005;28;20053;-61
2023/12/02 10:51:15;;;;;;;0.40;0.40;;;;;;;8.75;49.72;101429.00;5050480;28;20040;-60
2023/12/02 10:53:42;;;;;;;0.50;0.50;;;;;;;6.96;55.61;101434.88;5051210;28;20040;-60
2023/12/02 10:56:16;;;;;;;0.40;0.40;;;;;;;6.95;56.46;101427.03;5050463;28;20528;-60
2023/12/02 10:58:45;;;;;;;0.43;0.43;;;;;;;8.30;52.92;101429.56;5047950;28;20124;-61
2023/12/02 11:01:10;;;;;;;0.38;0.38;;;;;;;8.72;50.50;101438.31;5049861;28;20516;-61
2023/12/02 11:03:38;;;;;;;0.40;0.40;;;;;;;9.10;50.64;101429.81;5050395;28;20036;-61
2023/12/02 11:06:09;;;;;;;0.40;0.40;;;;;;;8.59;51.69;101434.69;5049706;28;20480;-62
2023/12/02 11:09:24;;;;;;;0.47;0.47;;;;;;;8.58;50.68;101435.72;5050780;28;20021;-60
2023/12/02 11:11:56;;;;;;;0.40;0.40;;;;;;;7.51;54.05;101423.53;4980517;28;20093;-61
2023/12/02 11:14:23;;;;;;;0.32;0.32;;;;;;;7.76;54.57;101432.81;4984221;28;20046;-61
2023/12/02 11:17:06;;;;;;;0.40;0.40;;;;;;;7.47;56.10;101426.81;4986990;28;20541;-60
2023/12/02 11:20:06;;;;;;;0.43;0.43;;;;;;;7.58;55.65;101427.13;4984401;28;20057;-61
2023/12/02 11:23:04;;;;;;;0.40;0.40;;;;;;;8.51;52.93;101422.28;4982987;28;20053;-62
2023/12/02 11:25:58;;;;;;;0.65;0.65;;;;;;;8.90;51.75;101424.38;4983940;28;20498;-61
2023/12/02 11:28:59;;;;;;;0.60;0.60;;;;;;;8.51;52.27;101426.84;4987088;28;20031;-60
2023/12/02 11:32:03;;;;;;;0.30;0.30;;;;;;;8.97;52.31;101432.41;4986564;28;20140;-61
2023/12/02 11:35:07;;;;;;;0.40;0.40;;;;;;;8.91;51.31;101417.13;4974067;28;20070;-61
2023/12/02 11:37:54;;;;;;;0.40;0.40;;;;;;;8.12;54.49;101422.00;4947579;29;20042;-60